sensor_id;sensor_type;location;lat;lon;timestamp;P1;durP1;ratioP1;P2;durP2;ratioP2
60641;SDS011;46837;52.446;-1.930;2022-09-02T00:00:08;4.52;;;1.78;;
60641;SDS011;46837;52.446;-1.930;2022-09-02T00:02:07;2.98;;;1.62;;
60641;SDS011;46837;52.446;-1.930;2022-09-02T00:03:07;7.54;;;2.72;;
60641;SDS011;46837;52.446;-1.930;2022-09-02T00:04:08;5.70;;;1.58;;
60641;SDS011;46837;52.446;-1.930;2022-09-02T00:05:07;8.62;;;2.20;;
60641;SDS011;46837;52.446;-1.930;2022-09-02T00:06:07;5.58;;;2.44;;
60641;SDS011;46837;52.446;-1.930;2022-09-02T00:07:07;6.22;;;2.30;;
60641;SDS011;46837;52.446;-1.930;2022-09-02T00:08:07;7.04;;;1.94;;
60641;SDS011;46837;52.446;-1.930;2022-09-02T00:09:07;9.70;;;2.88;;
60641;SDS011;46837;52.446;-1.930;2022-09-02T00:10:07;5.16;;;1.94;;
60641;SDS011;46837;52.446;-1.930;2022-09-02T00:11:07;17.50;;;3.48;;
60641;SDS011;46837;52.446;-1.930;2022-09-02T00:12:07;6.60;;;2.06;;
60641;SDS011;46837;52.446;-1.930;2022-09-02T00:13:07;8.72;;;1.80;;
60641;SDS011;46837;52.446;-1.930;2022-09-02T00:14:08;5.50;;;2.26;;
60641;SDS011;46837;52.446;-1.930;2022-09-02T00:15:07;7.42;;;2.40;;
60641;SDS011;46837;52.446;-1.930;2022-09-02T00:16:07;4.18;;;1.56;;
60641;SDS011;46837;52.446;-1.930;2022-09-02T00:17:07;4.22;;;2.06;;
60641;SDS011;46837;52.446;-1.930;2022-09-02T00:18:07;7.24;;;2.28;;
60641;SDS011;46837;52.446;-1.930;2022-09-02T00:19:07;6.72;;;1.46;;
60641;SDS011;46837;52.446;-1.930;2022-09-02T00:20:07;4.86;;;2.14;;
60641;SDS011;46837;52.446;-1.930;2022-09-02T00:21:07;5.12;;;1.92;;
60641;SDS011;46837;52.446;-1.930;2022-09-02T00:22:07;7.00;;;1.96;;
60641;SDS011;46837;52.446;-1.930;2022-09-02T00:23:07;11.32;;;2.72;;
60641;SDS011;46837;52.446;-1.930;2022-09-02T00:24:07;6.84;;;2.32;;
60641;SDS011;46837;52.446;-1.930;2022-09-02T00:25:07;10.02;;;2.30;;
60641;SDS011;46837;52.446;-1.930;2022-09-02T00:26:07;5.70;;;2.22;;
60641;SDS011;46837;52.446;-1.930;2022-09-02T00:27:07;8.60;;;2.78;;
60641;SDS011;46837;52.446;-1.930;2022-09-02T00:28:07;9.52;;;2.30;;
60641;SDS011;46837;52.446;-1.930;2022-09-02T00:29:07;4.32;;;1.76;;
60641;SDS011;46837;52.446;-1.930;2022-09-02T00:30:07;9.26;;;2.16;;
60641;SDS011;46837;52.446;-1.930;2022-09-02T00:31:07;7.02;;;2.40;;
60641;SDS011;46837;52.446;-1.930;2022-09-02T00:32:07;3.46;;;2.24;;
60641;SDS011;46837;52.446;-1.930;2022-09-02T00:33:07;9.28;;;2.28;;
60641;SDS011;46837;52.446;-1.930;2022-09-02T00:34:07;9.98;;;2.94;;
60641;SDS011;46837;52.446;-1.930;2022-09-02T00:35:07;5.22;;;2.22;;
60641;SDS011;46837;52.446;-1.930;2022-09-02T00:36:07;6.50;;;2.46;;
60641;SDS011;46837;52.446;-1.930;2022-09-02T00:37:07;4.30;;;2.26;;
60641;SDS011;46837;52.446;-1.930;2022-09-02T00:38:07;5.00;;;1.82;;
60641;SDS011;46837;52.446;-1.930;2022-09-02T00:39:07;5.28;;;1.96;;
60641;SDS011;46837;52.446;-1.930;2022-09-02T00:40:07;9.28;;;2.40;;
60641;SDS011;46837;52.446;-1.930;2022-09-02T00:41:08;5.88;;;1.98;;
60641;SDS011;46837;52.446;-1.930;2022-09-02T00:42:07;7.48;;;2.18;;
60641;SDS011;46837;52.446;-1.930;2022-09-02T00:43:07;7.18;;;2.58;;
60641;SDS011;46837;52.446;-1.930;2022-09-02T00:44:08;6.30;;;2.22;;
60641;SDS011;46837;52.446;-1.930;2022-09-02T00:45:07;8.62;;;2.18;;
60641;SDS011;46837;52.446;-1.930;2022-09-02T00:46:07;4.30;;;2.16;;
60641;SDS011;46837;52.446;-1.930;2022-09-02T00:47:07;4.60;;;2.02;;
60641;SDS011;46837;52.446;-1.930;2022-09-02T00:48:07;19.20;;;2.86;;
60641;SDS011;46837;52.446;-1.930;2022-09-02T00:49:12;4.04;;;1.96;;
60641;SDS011;46837;52.446;-1.930;2022-09-02T00:50:09;8.24;;;2.20;;
60641;SDS011;46837;52.446;-1.930;2022-09-02T00:51:07;7.20;;;2.50;;
60641;SDS011;46837;52.446;-1.930;2022-09-02T00:52:12;4.52;;;1.64;;
60641;SDS011;46837;52.446;-1.930;2022-09-02T00:53:07;4.66;;;2.24;;
60641;SDS011;46837;52.446;-1.930;2022-09-02T00:54:07;6.60;;;1.92;;
60641;SDS011;46837;52.446;-1.930;2022-09-02T00:55:12;4.28;;;2.12;;
60641;SDS011;46837;52.446;-1.930;2022-09-02T00:56:08;5.02;;;2.04;;
60641;SDS011;46837;52.446;-1.930;2022-09-02T00:57:07;10.88;;;1.94;;
60641;SDS011;46837;52.446;-1.930;2022-09-02T00:58:08;6.42;;;2.00;;
60641;SDS011;46837;52.446;-1.930;2022-09-02T00:59:07;12.36;;;2.92;;
60641;SDS011;46837;52.446;-1.930;2022-09-02T01:01:07;7.98;;;1.96;;
60641;SDS011;46837;52.446;-1.930;2022-09-02T01:02:07;8.08;;;2.26;;
60641;SDS011;46837;52.446;-1.930;2022-09-02T01:03:08;9.12;;;2.72;;
60641;SDS011;46837;52.446;-1.930;2022-09-02T01:04:07;12.08;;;2.56;;
60641;SDS011;46837;52.446;-1.930;2022-09-02T01:05:08;5.50;;;2.30;;
60641;SDS011;46837;52.446;-1.930;2022-09-02T01:06:07;7.22;;;2.64;;
60641;SDS011;46837;52.446;-1.930;2022-09-02T01:07:07;5.60;;;2.04;;
60641;SDS011;46837;52.446;-1.930;2022-09-02T01:08:09;7.38;;;2.34;;
60641;SDS011;46837;52.446;-1.930;2022-09-02T01:09:09;5.48;;;1.98;;
60641;SDS011;46837;52.446;-1.930;2022-09-02T01:10:08;7.60;;;2.20;;
60641;SDS011;46837;52.446;-1.930;2022-09-02T01:11:07;10.12;;;4.14;;
60641;SDS011;46837;52.446;-1.930;2022-09-02T01:12:07;8.62;;;2.88;;
60641;SDS011;46837;52.446;-1.930;2022-09-02T01:13:08;8.38;;;2.18;;
60641;SDS011;46837;52.446;-1.930;2022-09-02T01:14:07;7.58;;;2.16;;
60641;SDS011;46837;52.446;-1.930;2022-09-02T01:15:07;8.42;;;2.38;;
60641;SDS011;46837;52.446;-1.930;2022-09-02T01:17:07;5.56;;;2.22;;
60641;SDS011;46837;52.446;-1.930;2022-09-02T01:18:07;8.36;;;2.96;;
60641;SDS011;46837;52.446;-1.930;2022-09-02T01:19:08;7.92;;;2.82;;
60641;SDS011;46837;52.446;-1.930;2022-09-02T01:20:08;7.30;;;3.00;;
60641;SDS011;46837;52.446;-1.930;2022-09-02T01:21:07;8.04;;;2.34;;
60641;SDS011;46837;52.446;-1.930;2022-09-02T01:23:07;9.16;;;2.62;;
60641;SDS011;46837;52.446;-1.930;2022-09-02T01:24:07;10.50;;;2.86;;
60641;SDS011;46837;52.446;-1.930;2022-09-02T01:25:10;6.70;;;2.80;;
60641;SDS011;46837;52.446;-1.930;2022-09-02T01:26:07;9.12;;;2.70;;
60641;SDS011;46837;52.446;-1.930;2022-09-02T01:27:07;12.88;;;3.72;;
60641;SDS011;46837;52.446;-1.930;2022-09-02T01:28:08;8.72;;;3.78;;
60641;SDS011;46837;52.446;-1.930;2022-09-02T01:29:07;7.18;;;2.64;;
60641;SDS011;46837;52.446;-1.930;2022-09-02T01:30:08;11.00;;;3.00;;
60641;SDS011;46837;52.446;-1.930;2022-09-02T01:31:07;7.96;;;2.20;;
60641;SDS011;46837;52.446;-1.930;2022-09-02T01:32:07;6.06;;;2.62;;
60641;SDS011;46837;52.446;-1.930;2022-09-02T01:33:07;5.24;;;2.40;;
60641;SDS011;46837;52.446;-1.930;2022-09-02T01:34:07;8.80;;;2.26;;
60641;SDS011;46837;52.446;-1.930;2022-09-02T01:35:07;6.60;;;2.34;;
60641;SDS011;46837;52.446;-1.930;2022-09-02T01:36:07;6.28;;;1.96;;
60641;SDS011;46837;52.446;-1.930;2022-09-02T01:37:07;7.52;;;2.52;;
60641;SDS011;46837;52.446;-1.930;2022-09-02T01:38:07;9.92;;;3.38;;
60641;SDS011;46837;52.446;-1.930;2022-09-02T01:39:08;7.58;;;3.04;;
60641;SDS011;46837;52.446;-1.930;2022-09-02T01:40:08;6.24;;;2.64;;
60641;SDS011;46837;52.446;-1.930;2022-09-02T01:41:07;11.26;;;3.12;;
60641;SDS011;46837;52.446;-1.930;2022-09-02T01:42:07;7.68;;;2.20;;
60641;SDS011;46837;52.446;-1.930;2022-09-02T01:43:11;10.86;;;3.22;;
60641;SDS011;46837;52.446;-1.930;2022-09-02T01:44:07;15.20;;;5.16;;
60641;SDS011;46837;52.446;-1.930;2022-09-02T01:45:07;7.94;;;2.72;;
60641;SDS011;46837;52.446;-1.930;2022-09-02T01:46:07;6.80;;;2.96;;
60641;SDS011;46837;52.446;-1.930;2022-09-02T01:47:07;13.08;;;2.54;;
60641;SDS011;46837;52.446;-1.930;2022-09-02T01:48:07;7.18;;;2.12;;
60641;SDS011;46837;52.446;-1.930;2022-09-02T01:49:07;4.78;;;2.36;;
60641;SDS011;46837;52.446;-1.930;2022-09-02T01:50:07;7.66;;;2.68;;
60641;SDS011;46837;52.446;-1.930;2022-09-02T01:51:07;8.02;;;2.64;;
60641;SDS011;46837;52.446;-1.930;2022-09-02T01:52:07;10.74;;;3.02;;
60641;SDS011;46837;52.446;-1.930;2022-09-02T01:53:07;8.12;;;2.74;;
60641;SDS011;46837;52.446;-1.930;2022-09-02T01:54:07;16.52;;;3.56;;
60641;SDS011;46837;52.446;-1.930;2022-09-02T01:55:07;7.76;;;2.92;;
60641;SDS011;46837;52.446;-1.930;2022-09-02T01:56:07;7.52;;;2.44;;
60641;SDS011;46837;52.446;-1.930;2022-09-02T01:57:07;9.14;;;2.66;;
60641;SDS011;46837;52.446;-1.930;2022-09-02T01:58:07;5.26;;;2.50;;
60641;SDS011;46837;52.446;-1.930;2022-09-02T01:59:07;7.92;;;3.06;;
60641;SDS011;46837;52.446;-1.930;2022-09-02T02:00:07;9.92;;;2.84;;
60641;SDS011;46837;52.446;-1.930;2022-09-02T02:01:07;5.76;;;2.16;;
60641;SDS011;46837;52.446;-1.930;2022-09-02T02:02:07;7.88;;;3.44;;
60641;SDS011;46837;52.446;-1.930;2022-09-02T02:03:07;11.22;;;2.70;;
60641;SDS011;46837;52.446;-1.930;2022-09-02T02:04:07;8.40;;;2.38;;
60641;SDS011;46837;52.446;-1.930;2022-09-02T02:05:07;7.32;;;2.84;;
60641;SDS011;46837;52.446;-1.930;2022-09-02T02:07:07;6.38;;;2.90;;
60641;SDS011;46837;52.446;-1.930;2022-09-02T02:08:07;6.68;;;2.72;;
60641;SDS011;46837;52.446;-1.930;2022-09-02T02:09:07;8.78;;;2.40;;
60641;SDS011;46837;52.446;-1.930;2022-09-02T02:10:07;7.74;;;2.70;;
60641;SDS011;46837;52.446;-1.930;2022-09-02T02:11:07;11.58;;;2.34;;
60641;SDS011;46837;52.446;-1.930;2022-09-02T02:12:07;5.14;;;2.10;;
60641;SDS011;46837;52.446;-1.930;2022-09-02T02:13:07;9.00;;;2.06;;
60641;SDS011;46837;52.446;-1.930;2022-09-02T02:14:07;9.10;;;2.96;;
60641;SDS011;46837;52.446;-1.930;2022-09-02T02:15:08;8.06;;;2.24;;
60641;SDS011;46837;52.446;-1.930;2022-09-02T02:16:07;13.40;;;2.26;;
60641;SDS011;46837;52.446;-1.930;2022-09-02T02:17:07;5.12;;;2.32;;
60641;SDS011;46837;52.446;-1.930;2022-09-02T02:18:07;11.48;;;3.06;;
60641;SDS011;46837;52.446;-1.930;2022-09-02T02:19:07;4.74;;;2.14;;
60641;SDS011;46837;52.446;-1.930;2022-09-02T02:20:07;6.68;;;2.38;;
60641;SDS011;46837;52.446;-1.930;2022-09-02T02:21:07;6.16;;;1.88;;
60641;SDS011;46837;52.446;-1.930;2022-09-02T02:22:07;16.22;;;2.58;;
60641;SDS011;46837;52.446;-1.930;2022-09-02T02:23:07;6.28;;;2.28;;
60641;SDS011;46837;52.446;-1.930;2022-09-02T02:24:07;11.36;;;3.80;;
60641;SDS011;46837;52.446;-1.930;2022-09-02T02:25:07;3.98;;;2.32;;
60641;SDS011;46837;52.446;-1.930;2022-09-02T02:26:07;10.56;;;2.18;;
60641;SDS011;46837;52.446;-1.930;2022-09-02T02:27:07;8.70;;;3.50;;
60641;SDS011;46837;52.446;-1.930;2022-09-02T02:28:07;5.48;;;2.76;;
60641;SDS011;46837;52.446;-1.930;2022-09-02T02:29:07;11.84;;;3.04;;
60641;SDS011;46837;52.446;-1.930;2022-09-02T02:30:07;6.92;;;2.82;;
60641;SDS011;46837;52.446;-1.930;2022-09-02T02:31:07;12.26;;;3.02;;
60641;SDS011;46837;52.446;-1.930;2022-09-02T02:32:07;8.34;;;3.40;;
60641;SDS011;46837;52.446;-1.930;2022-09-02T02:33:07;7.48;;;2.96;;
60641;SDS011;46837;52.446;-1.930;2022-09-02T02:34:07;7.10;;;2.90;;
60641;SDS011;46837;52.446;-1.930;2022-09-02T02:35:07;7.72;;;3.16;;
60641;SDS011;46837;52.446;-1.930;2022-09-02T02:36:07;5.14;;;3.00;;
60641;SDS011;46837;52.446;-1.930;2022-09-02T02:37:07;17.06;;;3.82;;
60641;SDS011;46837;52.446;-1.930;2022-09-02T02:38:07;10.10;;;3.74;;
60641;SDS011;46837;52.446;-1.930;2022-09-02T02:39:07;12.54;;;2.94;;
60641;SDS011;46837;52.446;-1.930;2022-09-02T02:40:07;9.92;;;2.88;;
60641;SDS011;46837;52.446;-1.930;2022-09-02T02:41:07;7.30;;;3.20;;
60641;SDS011;46837;52.446;-1.930;2022-09-02T02:42:07;8.92;;;2.88;;
60641;SDS011;46837;52.446;-1.930;2022-09-02T02:43:07;10.64;;;4.06;;
60641;SDS011;46837;52.446;-1.930;2022-09-02T02:44:07;12.00;;;2.78;;
60641;SDS011;46837;52.446;-1.930;2022-09-02T02:45:09;8.14;;;2.82;;
60641;SDS011;46837;52.446;-1.930;2022-09-02T02:46:07;6.50;;;3.12;;
60641;SDS011;46837;52.446;-1.930;2022-09-02T02:47:07;10.52;;;3.46;;
60641;SDS011;46837;52.446;-1.930;2022-09-02T02:48:07;7.94;;;2.80;;
60641;SDS011;46837;52.446;-1.930;2022-09-02T02:49:07;5.32;;;3.06;;
60641;SDS011;46837;52.446;-1.930;2022-09-02T02:50:10;10.24;;;4.02;;
60641;SDS011;46837;52.446;-1.930;2022-09-02T02:51:07;6.96;;;2.94;;
60641;SDS011;46837;52.446;-1.930;2022-09-02T02:52:07;8.98;;;2.66;;
60641;SDS011;46837;52.446;-1.930;2022-09-02T02:53:07;4.98;;;2.82;;
60641;SDS011;46837;52.446;-1.930;2022-09-02T02:54:07;10.24;;;2.90;;
60641;SDS011;46837;52.446;-1.930;2022-09-02T02:55:07;7.48;;;3.18;;
60641;SDS011;46837;52.446;-1.930;2022-09-02T02:56:07;9.40;;;2.94;;
60641;SDS011;46837;52.446;-1.930;2022-09-02T02:57:07;9.92;;;3.58;;
60641;SDS011;46837;52.446;-1.930;2022-09-02T02:58:07;8.10;;;3.10;;
60641;SDS011;46837;52.446;-1.930;2022-09-02T02:59:07;9.20;;;3.76;;
60641;SDS011;46837;52.446;-1.930;2022-09-02T03:00:11;7.52;;;3.60;;
60641;SDS011;46837;52.446;-1.930;2022-09-02T03:01:07;7.32;;;3.30;;
60641;SDS011;46837;52.446;-1.930;2022-09-02T03:02:07;8.16;;;3.32;;
60641;SDS011;46837;52.446;-1.930;2022-09-02T03:03:07;8.74;;;2.90;;
60641;SDS011;46837;52.446;-1.930;2022-09-02T03:04:07;7.72;;;3.88;;
60641;SDS011;46837;52.446;-1.930;2022-09-02T03:05:07;13.66;;;3.34;;
60641;SDS011;46837;52.446;-1.930;2022-09-02T03:06:07;8.90;;;3.26;;
60641;SDS011;46837;52.446;-1.930;2022-09-02T03:07:07;15.68;;;3.64;;
60641;SDS011;46837;52.446;-1.930;2022-09-02T03:08:08;8.70;;;3.88;;
60641;SDS011;46837;52.446;-1.930;2022-09-02T03:09:07;14.76;;;3.26;;
60641;SDS011;46837;52.446;-1.930;2022-09-02T03:10:08;4.00;;;2.88;;
60641;SDS011;46837;52.446;-1.930;2022-09-02T03:11:07;8.20;;;3.12;;
60641;SDS011;46837;52.446;-1.930;2022-09-02T03:12:07;8.62;;;2.80;;
60641;SDS011;46837;52.446;-1.930;2022-09-02T03:13:07;8.16;;;3.64;;
60641;SDS011;46837;52.446;-1.930;2022-09-02T03:14:07;12.42;;;2.90;;
60641;SDS011;46837;52.446;-1.930;2022-09-02T03:15:07;13.36;;;4.02;;
60641;SDS011;46837;52.446;-1.930;2022-09-02T03:16:07;7.06;;;3.06;;
60641;SDS011;46837;52.446;-1.930;2022-09-02T03:17:07;10.00;;;3.76;;
60641;SDS011;46837;52.446;-1.930;2022-09-02T03:18:07;7.70;;;3.30;;
60641;SDS011;46837;52.446;-1.930;2022-09-02T03:19:07;9.16;;;3.70;;
60641;SDS011;46837;52.446;-1.930;2022-09-02T03:20:07;8.16;;;2.72;;
60641;SDS011;46837;52.446;-1.930;2022-09-02T03:21:07;11.80;;;3.16;;
60641;SDS011;46837;52.446;-1.930;2022-09-02T03:22:07;8.84;;;3.22;;
60641;SDS011;46837;52.446;-1.930;2022-09-02T03:23:07;18.68;;;3.70;;
60641;SDS011;46837;52.446;-1.930;2022-09-02T03:24:07;13.92;;;2.98;;
60641;SDS011;46837;52.446;-1.930;2022-09-02T03:25:07;16.34;;;4.12;;
60641;SDS011;46837;52.446;-1.930;2022-09-02T03:26:08;10.42;;;3.40;;
60641;SDS011;46837;52.446;-1.930;2022-09-02T03:27:07;6.12;;;3.00;;
60641;SDS011;46837;52.446;-1.930;2022-09-02T03:28:07;9.32;;;2.80;;
60641;SDS011;46837;52.446;-1.930;2022-09-02T03:29:07;16.44;;;3.44;;
60641;SDS011;46837;52.446;-1.930;2022-09-02T03:30:09;6.96;;;2.84;;
60641;SDS011;46837;52.446;-1.930;2022-09-02T03:31:11;10.60;;;3.02;;
60641;SDS011;46837;52.446;-1.930;2022-09-02T03:32:07;4.04;;;2.46;;
60641;SDS011;46837;52.446;-1.930;2022-09-02T03:33:07;9.62;;;3.48;;
60641;SDS011;46837;52.446;-1.930;2022-09-02T03:34:07;8.68;;;3.24;;
60641;SDS011;46837;52.446;-1.930;2022-09-02T03:35:08;8.52;;;2.46;;
60641;SDS011;46837;52.446;-1.930;2022-09-02T03:36:07;14.26;;;2.84;;
60641;SDS011;46837;52.446;-1.930;2022-09-02T03:37:07;8.62;;;3.24;;
60641;SDS011;46837;52.446;-1.930;2022-09-02T03:38:07;10.48;;;3.58;;
60641;SDS011;46837;52.446;-1.930;2022-09-02T03:39:07;10.48;;;3.34;;
60641;SDS011;46837;52.446;-1.930;2022-09-02T03:40:08;9.80;;;3.36;;
60641;SDS011;46837;52.446;-1.930;2022-09-02T03:41:07;9.26;;;2.82;;
60641;SDS011;46837;52.446;-1.930;2022-09-02T03:42:07;5.84;;;2.94;;
60641;SDS011;46837;52.446;-1.930;2022-09-02T03:43:07;7.62;;;3.26;;
60641;SDS011;46837;52.446;-1.930;2022-09-02T03:44:07;5.68;;;2.94;;
60641;SDS011;46837;52.446;-1.930;2022-09-02T03:45:07;8.56;;;4.38;;
60641;SDS011;46837;52.446;-1.930;2022-09-02T03:46:07;4.26;;;3.20;;
60641;SDS011;46837;52.446;-1.930;2022-09-02T03:47:07;12.18;;;2.60;;
60641;SDS011;46837;52.446;-1.930;2022-09-02T03:48:07;8.48;;;3.12;;
60641;SDS011;46837;52.446;-1.930;2022-09-02T03:49:07;6.90;;;2.74;;
60641;SDS011;46837;52.446;-1.930;2022-09-02T03:50:07;10.66;;;3.98;;
60641;SDS011;46837;52.446;-1.930;2022-09-02T03:51:07;12.70;;;3.58;;
60641;SDS011;46837;52.446;-1.930;2022-09-02T03:52:07;10.78;;;3.00;;
60641;SDS011;46837;52.446;-1.930;2022-09-02T03:53:07;6.70;;;2.70;;
60641;SDS011;46837;52.446;-1.930;2022-09-02T03:54:07;7.22;;;3.40;;
60641;SDS011;46837;52.446;-1.930;2022-09-02T03:55:07;8.96;;;2.86;;
60641;SDS011;46837;52.446;-1.930;2022-09-02T03:56:08;12.22;;;2.68;;
60641;SDS011;46837;52.446;-1.930;2022-09-02T03:57:07;9.38;;;2.06;;
60641;SDS011;46837;52.446;-1.930;2022-09-02T03:58:07;5.78;;;3.28;;
60641;SDS011;46837;52.446;-1.930;2022-09-02T03:59:07;12.64;;;3.28;;
60641;SDS011;46837;52.446;-1.930;2022-09-02T04:00:07;11.18;;;3.38;;
60641;SDS011;46837;52.446;-1.930;2022-09-02T08:12:07;12.26;;;5.16;;
60641;SDS011;46837;52.446;-1.930;2022-09-02T08:13:07;21.86;;;7.14;;
60641;SDS011;46837;52.446;-1.930;2022-09-02T08:14:07;17.12;;;5.50;;
60641;SDS011;46837;52.446;-1.930;2022-09-02T08:15:07;11.96;;;6.02;;
60641;SDS011;46837;52.446;-1.930;2022-09-02T08:16:07;15.30;;;5.06;;
60641;SDS011;46837;52.446;-1.930;2022-09-02T08:17:07;14.42;;;6.02;;
60641;SDS011;46837;52.446;-1.930;2022-09-02T08:18:07;9.34;;;5.64;;
60641;SDS011;46837;52.446;-1.930;2022-09-02T08:19:07;10.88;;;5.38;;
60641;SDS011;46837;52.446;-1.930;2022-09-02T08:20:07;15.88;;;5.64;;
60641;SDS011;46837;52.446;-1.930;2022-09-02T08:21:07;14.94;;;5.46;;
60641;SDS011;46837;52.446;-1.930;2022-09-02T08:22:07;10.68;;;5.36;;
60641;SDS011;46837;52.446;-1.930;2022-09-02T08:23:07;10.66;;;4.70;;
60641;SDS011;46837;52.446;-1.930;2022-09-02T08:24:07;12.74;;;6.10;;
60641;SDS011;46837;52.446;-1.930;2022-09-02T08:25:07;10.36;;;5.92;;
60641;SDS011;46837;52.446;-1.930;2022-09-02T08:26:07;11.86;;;5.74;;
60641;SDS011;46837;52.446;-1.930;2022-09-02T08:27:07;12.60;;;5.70;;
60641;SDS011;46837;52.446;-1.930;2022-09-02T08:28:07;10.98;;;6.12;;
60641;SDS011;46837;52.446;-1.930;2022-09-02T08:29:07;6.80;;;4.62;;
60641;SDS011;46837;52.446;-1.930;2022-09-02T08:30:07;9.54;;;4.82;;
60641;SDS011;46837;52.446;-1.930;2022-09-02T08:31:07;8.86;;;5.66;;
60641;SDS011;46837;52.446;-1.930;2022-09-02T08:32:07;8.96;;;5.28;;
60641;SDS011;46837;52.446;-1.930;2022-09-02T08:33:07;7.78;;;4.90;;
60641;SDS011;46837;52.446;-1.930;2022-09-02T08:34:07;10.98;;;5.36;;
60641;SDS011;46837;52.446;-1.930;2022-09-02T08:35:07;14.12;;;5.08;;
60641;SDS011;46837;52.446;-1.930;2022-09-02T08:36:07;11.10;;;5.58;;
60641;SDS011;46837;52.446;-1.930;2022-09-02T08:37:07;8.98;;;4.78;;
60641;SDS011;46837;52.446;-1.930;2022-09-02T08:38:07;11.12;;;4.98;;
60641;SDS011;46837;52.446;-1.930;2022-09-02T08:39:07;7.58;;;4.34;;
60641;SDS011;46837;52.446;-1.930;2022-09-02T08:40:07;8.06;;;4.22;;
60641;SDS011;46837;52.446;-1.930;2022-09-02T08:41:10;16.76;;;4.94;;
60641;SDS011;46837;52.446;-1.930;2022-09-02T08:43:15;12.62;;;3.92;;
60641;SDS011;46837;52.446;-1.930;2022-09-02T08:44:08;11.68;;;3.34;;
60641;SDS011;46837;52.446;-1.930;2022-09-02T08:45:11;15.50;;;3.66;;
60641;SDS011;46837;52.446;-1.930;2022-09-02T08:46:09;11.28;;;3.40;;
60641;SDS011;46837;52.446;-1.930;2022-09-02T08:47:08;9.86;;;3.18;;
60641;SDS011;46837;52.446;-1.930;2022-09-02T08:48:12;9.64;;;3.14;;
60641;SDS011;46837;52.446;-1.930;2022-09-02T08:49:07;13.70;;;3.18;;
60641;SDS011;46837;52.446;-1.930;2022-09-02T08:50:11;12.70;;;3.94;;
60641;SDS011;46837;52.446;-1.930;2022-09-02T08:52:07;7.08;;;3.40;;
60641;SDS011;46837;52.446;-1.930;2022-09-02T08:53:13;9.08;;;3.14;;
60641;SDS011;46837;52.446;-1.930;2022-09-02T08:54:08;10.08;;;2.60;;
60641;SDS011;46837;52.446;-1.930;2022-09-02T08:55:09;6.34;;;2.56;;
60641;SDS011;46837;52.446;-1.930;2022-09-02T08:56:07;7.24;;;3.14;;
60641;SDS011;46837;52.446;-1.930;2022-09-02T08:57:07;5.80;;;3.04;;
60641;SDS011;46837;52.446;-1.930;2022-09-02T08:58:07;8.16;;;2.56;;
60641;SDS011;46837;52.446;-1.930;2022-09-02T08:59:07;8.58;;;2.86;;
60641;SDS011;46837;52.446;-1.930;2022-09-02T09:00:07;11.66;;;3.64;;
60641;SDS011;46837;52.446;-1.930;2022-09-02T09:02:11;4.72;;;2.88;;
60641;SDS011;46837;52.446;-1.930;2022-09-02T09:11:13;10.46;;;3.22;;
60641;SDS011;46837;52.446;-1.930;2022-09-02T09:13:14;9.52;;;2.78;;
60641;SDS011;46837;52.446;-1.930;2022-09-02T09:16:13;8.34;;;2.82;;
60641;SDS011;46837;52.446;-1.930;2022-09-02T09:18:07;15.98;;;4.20;;
60641;SDS011;46837;52.446;-1.930;2022-09-02T09:20:08;5.74;;;2.68;;
60641;SDS011;46837;52.446;-1.930;2022-09-02T09:21:07;6.66;;;3.32;;
60641;SDS011;46837;52.446;-1.930;2022-09-02T09:22:09;7.44;;;3.20;;
60641;SDS011;46837;52.446;-1.930;2022-09-02T09:25:08;7.82;;;3.02;;
60641;SDS011;46837;52.446;-1.930;2022-09-02T09:26:10;7.70;;;2.64;;
60641;SDS011;46837;52.446;-1.930;2022-09-02T09:28:07;9.78;;;3.68;;
60641;SDS011;46837;52.446;-1.930;2022-09-02T09:29:07;8.94;;;2.78;;
60641;SDS011;46837;52.446;-1.930;2022-09-02T09:30:07;5.14;;;3.18;;
60641;SDS011;46837;52.446;-1.930;2022-09-02T09:31:08;14.78;;;4.20;;
60641;SDS011;46837;52.446;-1.930;2022-09-02T09:32:27;12.58;;;2.96;;
60641;SDS011;46837;52.446;-1.930;2022-09-02T09:33:07;7.48;;;3.36;;
60641;SDS011;46837;52.446;-1.930;2022-09-02T09:34:07;7.54;;;3.12;;
60641;SDS011;46837;52.446;-1.930;2022-09-02T09:35:10;12.18;;;3.62;;
60641;SDS011;46837;52.446;-1.930;2022-09-02T09:36:07;12.90;;;4.00;;
60641;SDS011;46837;52.446;-1.930;2022-09-02T09:37:07;11.56;;;2.62;;
60641;SDS011;46837;52.446;-1.930;2022-09-02T09:38:10;9.22;;;2.80;;
60641;SDS011;46837;52.446;-1.930;2022-09-02T09:42:12;5.54;;;2.64;;
60641;SDS011;46837;52.446;-1.930;2022-09-02T09:43:10;8.70;;;2.90;;
60641;SDS011;46837;52.446;-1.930;2022-09-02T09:44:07;6.04;;;2.04;;
60641;SDS011;46837;52.446;-1.930;2022-09-02T09:47:08;6.02;;;2.00;;
60641;SDS011;46837;52.446;-1.930;2022-09-02T09:49:07;9.04;;;3.04;;
60641;SDS011;46837;52.446;-1.930;2022-09-02T09:50:11;6.74;;;2.42;;
60641;SDS011;46837;52.446;-1.930;2022-09-02T09:51:10;8.28;;;2.36;;
60641;SDS011;46837;52.446;-1.930;2022-09-02T09:52:07;6.54;;;3.14;;
60641;SDS011;46837;52.446;-1.930;2022-09-02T09:53:29;5.40;;;2.24;;
60641;SDS011;46837;52.446;-1.930;2022-09-02T09:58:07;4.74;;;2.34;;
60641;SDS011;46837;52.446;-1.930;2022-09-02T09:59:08;8.62;;;2.70;;
60641;SDS011;46837;52.446;-1.930;2022-09-02T10:02:25;2.86;;;2.28;;
60641;SDS011;46837;52.446;-1.930;2022-09-02T10:03:07;9.20;;;2.78;;
60641;SDS011;46837;52.446;-1.930;2022-09-02T10:04:08;6.90;;;2.76;;
60641;SDS011;46837;52.446;-1.930;2022-09-02T10:05:09;9.42;;;2.64;;
60641;SDS011;46837;52.446;-1.930;2022-09-02T10:07:08;3.10;;;2.22;;
60641;SDS011;46837;52.446;-1.930;2022-09-02T10:11:18;8.76;;;1.86;;
60641;SDS011;46837;52.446;-1.930;2022-09-02T10:12:08;4.94;;;2.24;;
60641;SDS011;46837;52.446;-1.930;2022-09-02T10:14:07;4.56;;;2.14;;
60641;SDS011;46837;52.446;-1.930;2022-09-02T10:15:07;4.44;;;2.24;;
60641;SDS011;46837;52.446;-1.930;2022-09-02T10:16:13;10.54;;;3.14;;
60641;SDS011;46837;52.446;-1.930;2022-09-02T10:18:12;6.48;;;2.54;;
60641;SDS011;46837;52.446;-1.930;2022-09-02T10:21:12;3.60;;;1.88;;
60641;SDS011;46837;52.446;-1.930;2022-09-02T10:23:18;11.80;;;2.60;;
60641;SDS011;46837;52.446;-1.930;2022-09-02T10:24:19;4.78;;;1.78;;
60641;SDS011;46837;52.446;-1.930;2022-09-02T10:27:07;4.60;;;2.88;;
60641;SDS011;46837;52.446;-1.930;2022-09-02T10:29:16;3.72;;;2.34;;
60641;SDS011;46837;52.446;-1.930;2022-09-02T10:34:14;4.18;;;1.88;;
60641;SDS011;46837;52.446;-1.930;2022-09-02T10:35:08;4.64;;;2.04;;
60641;SDS011;46837;52.446;-1.930;2022-09-02T10:38:11;3.18;;;2.06;;
60641;SDS011;46837;52.446;-1.930;2022-09-02T10:39:11;5.56;;;2.46;;
60641;SDS011;46837;52.446;-1.930;2022-09-02T10:40:08;2.90;;;1.40;;
60641;SDS011;46837;52.446;-1.930;2022-09-02T10:42:09;6.44;;;2.24;;
60641;SDS011;46837;52.446;-1.930;2022-09-02T10:43:08;4.02;;;1.64;;
60641;SDS011;46837;52.446;-1.930;2022-09-02T10:45:14;4.48;;;1.80;;
60641;SDS011;46837;52.446;-1.930;2022-09-02T10:46:07;4.62;;;1.98;;
60641;SDS011;46837;52.446;-1.930;2022-09-02T10:50:12;6.50;;;2.88;;
60641;SDS011;46837;52.446;-1.930;2022-09-02T10:52:10;4.62;;;2.56;;
60641;SDS011;46837;52.446;-1.930;2022-09-02T10:55:13;3.64;;;2.34;;
60641;SDS011;46837;52.446;-1.930;2022-09-02T10:56:08;3.12;;;2.68;;
60641;SDS011;46837;52.446;-1.930;2022-09-02T10:59:09;8.14;;;2.50;;
60641;SDS011;46837;52.446;-1.930;2022-09-02T11:00:11;8.82;;;3.12;;
60641;SDS011;46837;52.446;-1.930;2022-09-02T11:01:07;4.14;;;2.42;;
60641;SDS011;46837;52.446;-1.930;2022-09-02T11:06:11;7.22;;;2.62;;
60641;SDS011;46837;52.446;-1.930;2022-09-02T11:07:07;6.38;;;3.24;;
60641;SDS011;46837;52.446;-1.930;2022-09-02T11:08:11;6.78;;;2.80;;
60641;SDS011;46837;52.446;-1.930;2022-09-02T11:10:07;7.04;;;2.66;;
60641;SDS011;46837;52.446;-1.930;2022-09-02T11:11:08;5.82;;;2.92;;
60641;SDS011;46837;52.446;-1.930;2022-09-02T11:12:09;5.48;;;2.40;;
60641;SDS011;46837;52.446;-1.930;2022-09-02T11:13:30;3.44;;;2.36;;
60641;SDS011;46837;52.446;-1.930;2022-09-02T11:16:10;6.42;;;2.42;;